Time;durP1;ratioP1;P1;durP2;ratioP2;P2;SDS_P1;SDS_P2;PMS_P1;PMS_P2;Temp;Humidity;BMP_temperature;BMP_pressure;BME280_temperature;BME280_humidity;BME280_pressure;Samples;Min_cycle;Max_cycle;Signal;HPM_P1;HPM_P2
2023/04/18 00:00:13;;;;;;;0.13;0.13;;;7.20;99.90;;;;;;5032144;28;21173;-89
2023/04/18 00:02:38;;;;;;;0.10;0.10;;;7.10;99.90;;;;;;5036669;28;20718;-89
2023/04/18 00:05:06;;;;;;;0.10;0.10;;;7.10;99.90;;;;;;5034525;28;20465;-88
2023/04/18 00:07:34;;;;;;;0.20;0.20;;;7.10;99.90;;;;;;5031266;28;20746;-89
2023/04/18 00:10:00;;;;;;;0.20;0.20;;;7.10;99.90;;;;;;5032276;28;21071;-89
2023/04/18 00:12:25;;;;;;;0.10;0.10;;;7.00;99.90;;;;;;5029779;28;20446;-90
2023/04/18 00:14:51;;;;;;;0.20;0.20;;;7.10;99.90;;;;;;5019919;28;20450;-89
2023/04/18 00:17:17;;;;;;;0.20;0.20;;;7.00;99.90;;;;;;5032767;28;20329;-89
2023/04/18 00:19:43;;;;;;;0.20;0.20;;;7.00;99.90;;;;;;5033838;28;20314;-88
2023/04/18 00:22:09;;;;;;;0.20;0.20;;;6.90;99.90;;;;;;5030418;28;20541;-89
2023/04/18 00:24:35;;;;;;;0.20;0.20;;;6.90;99.90;;;;;;5034294;28;20171;-89
2023/04/18 00:27:00;;;;;;;0.20;0.20;;;6.80;99.90;;;;;;5031069;28;20452;-88
2023/04/18 00:29:26;;;;;;;0.20;0.20;;;6.80;99.90;;;;;;5028789;28;20211;-89
2023/04/18 00:31:52;;;;;;;0.20;0.20;;;6.70;99.90;;;;;;5030003;28;20187;-88
2023/04/18 00:34:17;;;;;;;0.20;0.20;;;6.70;99.90;;;;;;5023971;28;20291;-89
2023/04/18 00:36:43;;;;;;;0.20;0.20;;;6.70;99.90;;;;;;5030153;28;20191;-89
2023/04/18 00:39:08;;;;;;;0.20;0.20;;;6.60;99.90;;;;;;5032345;28;20187;-88
2023/04/18 00:41:34;;;;;;;0.20;0.20;;;6.60;99.90;;;;;;5034140;28;20211;-88
2023/04/18 00:43:59;;;;;;;0.20;0.20;;;6.60;99.90;;;;;;5022269;28;20591;-88
2023/04/18 00:46:25;;;;;;;0.20;0.20;;;6.60;99.90;;;;;;5037868;28;20191;-89
2023/04/18 00:48:50;;;;;;;0.17;0.17;;;6.60;99.90;;;;;;5040772;28;20677;-89
2023/04/18 00:51:16;;;;;;;0.20;0.20;;;6.60;99.90;;;;;;5030203;28;20965;-88
2023/04/18 00:53:43;;;;;;;0.20;0.20;;;6.60;99.90;;;;;;5024313;28;20176;-88
2023/04/18 00:56:09;;;;;;;0.20;0.20;;;6.50;99.90;;;;;;5032347;28;20278;-89
2023/04/18 00:58:35;;;;;;;0.20;0.20;;;6.50;99.90;;;;;;5030449;28;20442;-89
2023/04/18 01:01:01;;;;;;;0.20;0.20;;;6.50;99.90;;;;;;5027845;28;20508;-90
2023/04/18 01:03:26;;;;;;;0.20;0.20;;;6.50;99.90;;;;;;5032393;28;20245;-89
2023/04/18 01:05:54;;;;;;;0.20;0.20;;;6.50;99.90;;;;;;5026679;28;20196;-89
2023/04/18 01:08:20;;;;;;;0.20;0.20;;;6.60;99.90;;;;;;5031158;28;20247;-88
2023/04/18 01:10:47;;;;;;;0.20;0.20;;;6.50;99.90;;;;;;5030888;28;20446;-88
2023/04/18 01:13:17;;;;;;;0.20;0.20;;;6.50;99.90;;;;;;5028598;28;20446;-89
2023/04/18 01:15:47;;;;;;;0.20;0.20;;;6.50;99.90;;;;;;5031426;28;20442;-88
2023/04/18 01:18:16;;;;;;;0.13;0.13;;;6.50;99.90;;;;;;5029823;28;20536;-89
2023/04/18 01:20:48;;;;;;;0.10;0.10;;;6.50;99.90;;;;;;5031417;28;20449;-88
2023/04/18 01:23:14;;;;;;;0.20;0.20;;;6.40;99.90;;;;;;5030791;28;20503;-89
2023/04/18 01:25:40;;;;;;;0.20;0.20;;;6.40;99.90;;;;;;5015397;28;20842;-89
2023/04/18 01:28:06;;;;;;;0.20;0.20;;;6.40;99.90;;;;;;5034689;28;20620;-89
2023/04/18 01:30:33;;;;;;;0.20;0.20;;;6.40;99.90;;;;;;5030274;28;20220;-89
2023/04/18 01:33:03;;;;;;;0.20;0.20;;;6.30;99.90;;;;;;5029399;28;20184;-89
2023/04/18 01:35:29;;;;;;;0.20;0.20;;;6.40;99.90;;;;;;5045045;28;20442;-89
2023/04/18 01:37:56;;;;;;;0.20;0.20;;;6.40;99.90;;;;;;5021055;28;20440;-89
2023/04/18 01:40:21;;;;;;;0.20;0.20;;;6.40;99.90;;;;;;5016711;28;20486;-89
2023/04/18 01:42:47;;;;;;;0.20;0.20;;;6.50;99.90;;;;;;5030858;28;20508;-89
2023/04/18 01:45:13;;;;;;;0.20;0.20;;;6.50;99.90;;;;;;5044874;28;20201;-88
2023/04/18 01:47:38;;;;;;;0.20;0.20;;;6.50;99.90;;;;;;5027239;28;20594;-89
2023/04/18 01:50:04;;;;;;;0.20;0.20;;;6.40;99.90;;;;;;5026894;28;20262;-89
2023/04/18 01:52:30;;;;;;;0.20;0.20;;;6.40;99.90;;;;;;5042260;28;20187;-90
2023/04/18 01:54:56;;;;;;;0.20;0.20;;;6.40;99.90;;;;;;5029279;28;20815;-89
2023/04/18 01:57:21;;;;;;;0.20;0.20;;;6.30;99.90;;;;;;5033559;28;20171;-89
2023/04/18 01:59:47;;;;;;;0.17;0.17;;;6.30;99.90;;;;;;5026566;28;20461;-89
2023/04/18 02:02:12;;;;;;;0.20;0.20;;;6.40;99.90;;;;;;5031947;28;20184;-89
2023/04/18 02:04:38;;;;;;;0.20;0.20;;;6.30;99.90;;;;;;5030729;28;20674;-89
2023/04/18 02:07:04;;;;;;;0.20;0.20;;;6.30;99.90;;;;;;5030205;28;20195;-89
2023/04/18 02:09:29;;;;;;;0.20;0.20;;;6.30;99.90;;;;;;5029746;28;20223;-89
2023/04/18 02:11:58;;;;;;;0.20;0.20;;;6.20;99.90;;;;;;5029135;28;20461;-89
2023/04/18 02:14:25;;;;;;;0.20;0.20;;;6.20;99.90;;;;;;5027158;28;20230;-88
2023/04/18 02:16:51;;;;;;;0.20;0.20;;;6.30;99.90;;;;;;5023350;28;20467;-89
2023/04/18 02:19:16;;;;;;;0.27;0.27;;;6.20;99.90;;;;;;5030496;28;20500;-89
2023/04/18 02:21:43;;;;;;;0.20;0.20;;;6.30;99.90;;;;;;5032581;28;20191;-87
2023/04/18 02:24:08;;;;;;;0.20;0.20;;;6.20;99.90;;;;;;5029931;28;20618;-89
2023/04/18 02:26:34;;;;;;;0.20;0.20;;;6.10;99.90;;;;;;5035285;28;20513;-88
2023/04/18 02:28:59;;;;;;;0.20;0.20;;;6.20;99.90;;;;;;5028367;28;20215;-88
2023/04/18 02:31:25;;;;;;;0.20;0.20;;;6.10;99.90;;;;;;5028802;28;20183;-89
2023/04/18 02:33:51;;;;;;;0.20;0.20;;;6.20;99.90;;;;;;5017042;28;20184;-89
2023/04/18 02:36:16;;;;;;;0.20;0.20;;;6.00;99.90;;;;;;5029978;28;20211;-89
2023/04/18 02:38:42;;;;;;;0.20;0.20;;;6.10;99.90;;;;;;5023793;28;20645;-89
2023/04/18 02:41:07;;;;;;;0.20;0.20;;;6.10;99.90;;;;;;5025198;28;20274;-88
2023/04/18 02:43:33;;;;;;;0.20;0.20;;;6.10;99.90;;;;;;5031092;28;20659;-88
2023/04/18 02:45:58;;;;;;;0.20;0.20;;;6.00;99.90;;;;;;5036499;28;20615;-90
2023/04/18 02:48:24;;;;;;;0.20;0.20;;;6.10;99.90;;;;;;5040718;28;20682;-89
2023/04/18 02:50:50;;;;;;;0.20;0.20;;;6.10;99.90;;;;;;5030616;28;20202;-89
2023/04/18 02:53:16;;;;;;;0.20;0.20;;;6.00;99.90;;;;;;5029815;28;20434;-89
2023/04/18 02:55:41;;;;;;;0.27;0.27;;;5.90;99.90;;;;;;5043937;28;20207;-89
2023/04/18 02:58:07;;;;;;;0.20;0.20;;;5.90;99.90;;;;;;5034904;28;20586;-90
2023/04/18 03:00:33;;;;;;;0.20;0.20;;;5.90;99.90;;;;;;5017444;28;20195;-89
2023/04/18 03:02:59;;;;;;;0.20;0.20;;;5.80;99.90;;;;;;5031185;28;20275;-89
2023/04/18 03:05:25;;;;;;;0.23;0.23;;;5.90;99.90;;;;;;5028484;28;20520;-91
2023/04/18 03:07:50;;;;;;;0.20;0.20;;;5.90;99.90;;;;;;5032050;28;20532;-91
2023/04/18 03:10:16;;;;;;;0.20;0.20;;;5.90;99.90;;;;;;5034276;28;20237;-89
2023/04/18 03:12:41;;;;;;;0.20;0.20;;;5.90;99.90;;;;;;5028100;28;20200;-91
2023/04/18 03:15:07;;;;;;;0.20;0.20;;;5.80;99.90;;;;;;5027217;28;20251;-90
2023/04/18 03:17:34;;;;;;;0.20;0.20;;;5.90;99.90;;;;;;5022848;28;20249;-91
2023/04/18 03:20:00;;;;;;;0.20;0.20;;;5.90;99.90;;;;;;5033358;28;20438;-91
2023/04/18 03:22:25;;;;;;;0.20;0.20;;;5.80;99.90;;;;;;5030746;28;20445;-91
2023/04/18 03:24:51;;;;;;;0.20;0.20;;;5.80;99.90;;;;;;5035913;28;20213;-91
2023/04/18 03:27:16;;;;;;;0.20;0.20;;;5.80;99.90;;;;;;5038125;28;20195;-90
2023/04/18 03:29:42;;;;;;;0.20;0.20;;;5.80;99.90;;;;;;5032009;28;20218;-91
2023/04/18 03:32:08;;;;;;;0.20;0.20;;;5.90;99.90;;;;;;5027649;28;20541;-90
2023/04/18 03:34:33;;;;;;;0.30;0.30;;;5.80;99.90;;;;;;5033298;28;20190;-91
2023/04/18 03:36:59;;;;;;;0.20;0.20;;;5.80;99.90;;;;;;5022995;28;20682;-90
2023/04/18 03:39:24;;;;;;;0.30;0.30;;;5.80;99.90;;;;;;5027706;28;20659;-90
2023/04/18 03:41:51;;;;;;;0.20;0.20;;;5.80;99.90;;;;;;5029392;28;20211;-90
2023/04/18 03:44:16;;;;;;;0.20;0.20;;;5.80;99.90;;;;;;5033985;28;20675;-91
2023/04/18 03:46:42;;;;;;;0.20;0.20;;;5.80;99.90;;;;;;5028664;28;20537;-90
2023/04/18 03:49:07;;;;;;;0.20;0.20;;;5.80;99.90;;;;;;5027222;28;20215;-91
2023/04/18 03:51:46;;;;;;;0.20;0.20;;;5.70;99.90;;;;;;5030512;28;20869;-91
2023/04/18 03:54:13;;;;;;;0.20;0.20;;;5.70;99.90;;;;;;5028314;28;20785;-91
2023/04/18 03:56:39;;;;;;;0.30;0.30;;;5.70;99.90;;;;;;5027935;28;20486;-91
2023/04/18 03:59:05;;;;;;;0.20;0.20;;;5.70;99.90;;;;;;5028780;28;20439;-90
2023/04/18 04:01:30;;;;;;;0.20;0.20;;;5.70;99.90;;;;;;5028018;28;20501;-90
2023/04/18 04:04:00;;;;;;;0.20;0.20;;;5.60;99.90;;;;;;5029203;28;20639;-91
2023/04/18 04:06:26;;;;;;;0.20;0.20;;;5.70;99.90;;;;;;5035903;28;20187;-90
2023/04/18 04:08:52;;;;;;;0.20;0.20;;;5.60;99.90;;;;;;5028636;28;20536;-90
2023/04/18 04:11:17;;;;;;;0.20;0.20;;;5.60;99.90;;;;;;5028523;28;20517;-90
2023/04/18 04:13:42;;;;;;;0.20;0.20;;;5.60;99.90;;;;;;5039340;28;20187;-89
2023/04/18 04:16:08;;;;;;;0.20;0.20;;;5.60;99.90;;;;;;5027053;28;20191;-90
2023/04/18 04:18:34;;;;;;;0.20;0.20;;;5.50;99.90;;;;;;5037615;28;20274;-89
2023/04/18 04:21:00;;;;;;;0.20;0.20;;;5.50;99.90;;;;;;5042358;28;20656;-89
2023/04/18 04:23:26;;;;;;;0.20;0.20;;;5.60;99.90;;;;;;5036382;28;20655;-91
2023/04/18 04:25:52;;;;;;;0.20;0.20;;;5.60;99.90;;;;;;5032841;28;20485;-90
2023/04/18 04:28:22;;;;;;;0.20;0.20;;;5.60;99.90;;;;;;5033286;28;20249;-89
2023/04/18 04:30:49;;;;;;;0.20;0.20;;;5.60;99.90;;;;;;5031133;28;20461;-90
2023/04/18 04:33:18;;;;;;;0.27;0.27;;;5.60;99.90;;;;;;5029341;28;20458;-89
2023/04/18 04:35:45;;;;;;;0.30;0.30;;;5.60;99.90;;;;;;5022368;28;20985;-89
2023/04/18 04:38:11;;;;;;;0.20;0.20;;;5.70;99.90;;;;;;5031426;28;20481;-90
2023/04/18 04:40:36;;;;;;;0.20;0.20;;;5.70;99.90;;;;;;5032488;28;20465;-91
2023/04/18 04:43:02;;;;;;;0.20;0.20;;;5.70;99.90;;;;;;5029130;28;20217;-91
2023/04/18 04:45:27;;;;;;;0.30;0.30;;;5.70;99.90;;;;;;5022449;28;20282;-91
2023/04/18 04:47:53;;;;;;;0.27;0.27;;;5.70;99.90;;;;;;5031986;28;20191;-91
2023/04/18 04:50:19;;;;;;;0.20;0.20;;;5.90;99.90;;;;;;5026552;28;20233;-91
2023/04/18 04:52:44;;;;;;;0.20;0.20;;;5.90;99.90;;;;;;5033230;28;20957;-91
2023/04/18 04:55:10;;;;;;;0.30;0.30;;;5.90;99.90;;;;;;5032657;28;20187;-90
2023/04/18 04:57:36;;;;;;;0.20;0.20;;;6.00;99.90;;;;;;5033841;28;20180;-91
2023/04/18 05:00:03;;;;;;;0.30;0.30;;;6.00;99.90;;;;;;5029721;28;20194;-91
2023/04/18 05:02:29;;;;;;;0.20;0.20;;;6.00;99.90;;;;;;5024837;28;20469;-91
2023/04/18 05:04:55;;;;;;;0.20;0.20;;;6.00;99.90;;;;;;5028939;28;20450;-89
2023/04/18 05:07:20;;;;;;;0.20;0.20;;;6.00;99.90;;;;;;5031162;28;20289;-90
2023/04/18 05:09:46;;;;;;;0.20;0.20;;;6.10;99.90;;;;;;5025136;28;20228;-90
2023/04/18 05:12:11;;;;;;;0.20;0.20;;;6.10;99.90;;;;;;5026382;28;20184;-93
2023/04/18 05:14:37;;;;;;;0.20;0.20;;;6.20;99.90;;;;;;5030653;28;20215;-92
2023/04/18 05:17:02;;;;;;;0.23;0.23;;;6.20;99.90;;;;;;5031183;28;20188;-92
2023/04/18 05:19:28;;;;;;;0.20;0.20;;;6.30;99.90;;;;;;5033753;28;20188;-92
2023/04/18 05:21:54;;;;;;;0.20;0.20;;;6.40;99.90;;;;;;5031318;28;20192;-90
2023/04/18 05:24:19;;;;;;;0.20;0.20;;;6.50;99.90;;;;;;5039352;28;20192;-90
2023/04/18 05:26:45;;;;;;;0.20;0.20;;;6.60;99.90;;;;;;5026348;28;20219;-88
2023/04/18 05:29:11;;;;;;;0.20;0.20;;;6.60;99.90;;;;;;5031578;28;20321;-87
2023/04/18 05:31:36;;;;;;;0.20;0.20;;;6.70;99.90;;;;;;5029646;28;20195;-87
2023/04/18 05:34:02;;;;;;;0.20;0.20;;;6.80;99.90;;;;;;5028234;28;20279;-88
2023/04/18 05:36:27;;;;;;;0.20;0.20;;;6.90;99.90;;;;;;5030616;28;20195;-89
2023/04/18 05:38:53;;;;;;;0.20;0.20;;;7.00;99.90;;;;;;5033981;28;20194;-88
2023/04/18 05:41:18;;;;;;;0.20;0.20;;;7.10;99.90;;;;;;5029035;28;20187;-87
2023/04/18 05:43:44;;;;;;;0.10;0.10;;;7.20;99.90;;;;;;5035582;28;20192;-86
2023/04/18 05:46:11;;;;;;;0.20;0.20;;;7.20;99.90;;;;;;5033435;28;20537;-90
2023/04/18 05:48:36;;;;;;;0.20;0.20;;;7.20;99.90;;;;;;5027085;28;20809;-86
2023/04/18 05:51:03;;;;;;;0.10;0.10;;;7.10;99.90;;;;;;5030196;28;20430;-91
2023/04/18 05:53:29;;;;;;;0.20;0.20;;;7.20;99.90;;;;;;5028827;28;20183;-88
2023/04/18 05:55:56;;;;;;;0.20;0.20;;;7.20;99.90;;;;;;5033225;28;20446;-87
2023/04/18 05:58:21;;;;;;;0.20;0.20;;;7.30;99.90;;;;;;5033250;28;20644;-90
2023/04/18 06:00:47;;;;;;;0.10;0.10;;;7.30;99.90;;;;;;5024076;28;20516;-89
2023/04/18 06:03:12;;;;;;;0.20;0.20;;;7.30;99.90;;;;;;5030970;28;20228;-90
2023/04/18 06:05:39;;;;;;;0.20;0.20;;;7.40;99.90;;;;;;5039020;28;20186;-88
2023/04/18 06:08:06;;;;;;;0.20;0.20;;;7.50;99.90;;;;;;5038976;28;20312;-88
2023/04/18 06:10:32;;;;;;;0.17;0.17;;;7.50;99.90;;;;;;5026259;28;20465;-90
2023/04/18 06:12:57;;;;;;;0.10;0.10;;;7.60;99.90;;;;;;5030251;28;20571;-89
2023/04/18 06:15:23;;;;;;;0.20;0.20;;;7.60;99.90;;;;;;5028737;28;20703;-89
2023/04/18 06:17:49;;;;;;;0.10;0.10;;;7.60;99.90;;;;;;5025956;28;20662;-90
2023/04/18 06:20:15;;;;;;;0.20;0.20;;;7.70;99.90;;;;;;5030361;28;20275;-87
2023/04/18 06:22:41;;;;;;;0.13;0.13;;;7.70;99.90;;;;;;5037736;28;20522;-86
2023/04/18 06:25:08;;;;;;;0.20;0.20;;;7.80;99.90;;;;;;5019637;28;20183;-86
2023/04/18 06:27:35;;;;;;;0.20;0.20;;;7.80;99.90;;;;;;5024239;28;20206;-86
2023/04/18 06:30:00;;;;;;;0.20;0.20;;;7.80;99.90;;;;;;5026372;28;20846;-89
2023/04/18 06:32:26;;;;;;;0.10;0.10;;;7.90;99.90;;;;;;5024059;28;20430;-88
2023/04/18 06:34:51;;;;;;;0.20;0.20;;;7.90;99.90;;;;;;5023193;28;20187;-87
2023/04/18 06:37:17;;;;;;;0.20;0.20;;;7.90;99.90;;;;;;5022673;28;20184;-84
2023/04/18 06:39:43;;;;;;;0.20;0.20;;;8.00;99.90;;;;;;5022107;28;20860;-85
2023/04/18 06:42:08;;;;;;;0.20;0.20;;;8.00;99.90;;;;;;5030900;28;20195;-86
2023/04/18 06:44:35;;;;;;;0.20;0.20;;;7.90;99.90;;;;;;5027208;28;20266;-85
2023/04/18 06:47:00;;;;;;;0.10;0.10;;;7.90;99.90;;;;;;5025949;28;20179;-84
2023/04/18 06:49:26;;;;;;;0.20;0.20;;;8.10;99.90;;;;;;5030743;28;20584;-86
2023/04/18 06:51:51;;;;;;;0.17;0.17;;;8.10;99.90;;;;;;5023183;28;20185;-88
2023/04/18 06:54:17;;;;;;;0.20;0.20;;;8.10;99.90;;;;;;5030481;28;20187;-87
2023/04/18 06:56:42;;;;;;;0.20;0.20;;;8.20;99.90;;;;;;5028653;28;20448;-86
2023/04/18 06:59:08;;;;;;;0.10;0.10;;;8.10;99.90;;;;;;5035225;28;20301;-85
2023/04/18 07:01:40;;;;;;;0.17;0.17;;;8.20;99.90;;;;;;5024868;28;20206;-85
2023/04/18 07:04:05;;;;;;;0.20;0.20;;;8.20;99.90;;;;;;5029404;28;20663;-85
2023/04/18 07:06:31;;;;;;;0.10;0.10;;;8.20;99.90;;;;;;5028704;28;20450;-85
2023/04/18 07:08:59;;;;;;;0.10;0.10;;;8.30;99.90;;;;;;5025334;28;20266;-85
2023/04/18 07:11:25;;;;;;;0.10;0.10;;;8.30;99.90;;;;;;5027486;28;20453;-85
2023/04/18 07:13:51;;;;;;;0.20;0.20;;;8.30;99.90;;;;;;5028053;28;20430;-84
2023/04/18 07:16:16;;;;;;;0.20;0.20;;;8.30;99.90;;;;;;5027003;28;20445;-85
2023/04/18 07:18:42;;;;;;;0.13;0.13;;;8.30;99.90;;;;;;5028939;28;20213;-85
2023/04/18 07:21:07;;;;;;;0.10;0.10;;;8.20;99.90;;;;;;5029135;28;20786;-85
2023/04/18 07:23:33;;;;;;;0.13;0.13;;;8.20;99.90;;;;;;5027103;28;20190;-85
2023/04/18 07:26:01;;;;;;;0.20;0.20;;;8.30;99.90;;;;;;5023534;28;21068;-85
2023/04/18 07:28:27;;;;;;;0.10;0.10;;;8.30;99.90;;;;;;5026732;28;20338;-86
2023/04/18 07:30:53;;;;;;;0.17;0.17;;;8.30;99.90;;;;;;5025787;28;20553;-84
2023/04/18 07:33:18;;;;;;;0.17;0.17;;;8.30;99.90;;;;;;5026122;28;20194;-86
2023/04/18 07:35:45;;;;;;;0.17;0.17;;;8.30;99.90;;;;;;5021735;28;21290;-84
2023/04/18 07:38:11;;;;;;;0.10;0.10;;;8.30;99.90;;;;;;5024580;28;20187;-86
2023/04/18 07:40:37;;;;;;;0.20;0.20;;;8.30;99.90;;;;;;5024672;28;20446;-84
2023/04/18 07:43:03;;;;;;;0.20;0.20;;;8.50;99.90;;;;;;5029851;28;21577;-85
2023/04/18 07:45:28;;;;;;;0.10;0.10;;;8.50;99.90;;;;;;5025620;28;20198;-85
2023/04/18 07:47:54;;;;;;;0.13;0.13;;;8.50;99.90;;;;;;5027618;28;20186;-88
2023/04/18 07:50:20;;;;;;;0.20;0.20;;;8.60;99.90;;;;;;5029728;28;20229;-86
2023/04/18 07:52:46;;;;;;;0.13;0.13;;;8.70;99.90;;;;;;5029925;28;20179;-87
2023/04/18 07:55:13;;;;;;;0.10;0.10;;;8.80;99.90;;;;;;5036670;28;20196;-86
2023/04/18 07:57:42;;;;;;;0.10;0.10;;;8.70;99.90;;;;;;5032357;28;20442;-86
2023/04/18 08:00:09;;;;;;;0.10;0.10;;;8.70;99.90;;;;;;5026008;28;20923;-87
2023/04/18 08:02:34;;;;;;;0.10;0.10;;;8.60;99.90;;;;;;5040939;28;20453;-87
2023/04/18 08:05:00;;;;;;;0.10;0.10;;;8.60;99.90;;;;;;5036012;28;20441;-87
2023/04/18 08:07:25;;;;;;;0.13;0.13;;;8.60;99.90;;;;;;5030068;28;20195;-86
2023/04/18 08:09:51;;;;;;;0.20;0.20;;;8.60;99.90;;;;;;5029998;28;20243;-86
2023/04/18 08:12:17;;;;;;;0.10;0.10;;;8.60;99.90;;;;;;5028693;28;20688;-87
2023/04/18 08:14:42;;;;;;;0.20;0.20;;;8.70;99.90;;;;;;5027061;28;20179;-86
2023/04/18 08:17:08;;;;;;;0.20;0.20;;;8.70;99.90;;;;;;5035288;28;20185;-86
2023/04/18 08:19:33;;;;;;;0.20;0.20;;;8.70;99.90;;;;;;5040690;28;20221;-86
2023/04/18 08:22:09;;;;;;;0.10;0.10;;;8.70;99.90;;;;;;5035761;28;20188;-87
2023/04/18 08:24:37;;;;;;;0.13;0.13;;;8.70;99.90;;;;;;5030014;28;20213;-87
2023/04/18 08:27:02;;;;;;;0.10;0.10;;;8.70;99.90;;;;;;5031411;28;20653;-87
2023/04/18 08:29:28;;;;;;;0.10;0.10;;;8.70;99.90;;;;;;5043373;28;20497;-88
2023/04/18 08:31:54;;;;;;;0.10;0.10;;;8.70;99.90;;;;;;5035613;28;20198;-87
2023/04/18 08:34:19;;;;;;;0.17;0.17;;;8.70;99.90;;;;;;5044618;28;20717;-85
2023/04/18 08:36:45;;;;;;;0.13;0.13;;;8.90;99.90;;;;;;5029680;28;20197;-85
2023/04/18 08:39:10;;;;;;;0.10;0.10;;;8.90;99.90;;;;;;5029131;28;20225;-84
2023/04/18 08:41:36;;;;;;;0.10;0.10;;;9.10;99.90;;;;;;5030709;28;20187;-84
2023/04/18 08:44:02;;;;;;;0.10;0.10;;;9.20;99.90;;;;;;5031390;28;20295;-85
2023/04/18 08:46:28;;;;;;;0.10;0.10;;;9.30;99.90;;;;;;5038364;28;20860;-85
2023/04/18 08:48:58;;;;;;;0.10;0.10;;;9.40;99.90;;;;;;5035116;28;20214;-85
2023/04/18 08:51:24;;;;;;;0.10;0.10;;;9.50;99.90;;;;;;5022602;28;20459;-84
2023/04/18 08:53:50;;;;;;;0.10;0.10;;;9.40;99.90;;;;;;5024960;28;20996;-87
2023/04/18 08:56:16;;;;;;;0.10;0.10;;;9.40;99.90;;;;;;5047875;28;20449;-87
2023/04/18 08:58:43;;;;;;;0.10;0.10;;;9.40;99.90;;;;;;5045469;28;20564;-86
2023/04/18 09:01:09;;;;;;;0.10;0.10;;;9.40;99.90;;;;;;5037168;28;20187;-86
2023/04/18 09:03:42;;;;;;;0.17;0.17;;;9.30;99.90;;;;;;5033878;28;20496;-87
2023/04/18 09:06:12;;;;;;;0.10;0.10;;;9.30;99.90;;;;;;5026745;28;20191;-86
2023/04/18 09:08:40;;;;;;;0.10;0.10;;;9.40;99.90;;;;;;5047553;28;20539;-87
2023/04/18 09:11:27;;;;;;;0.10;0.10;;;9.40;99.90;;;;;;5032388;28;20458;-86
2023/04/18 09:13:55;;;;;;;0.13;0.13;;;9.30;99.90;;;;;;5029971;28;20482;-86
2023/04/18 09:16:21;;;;;;;0.10;0.10;;;9.20;99.90;;;;;;5031480;28;20512;-86
2023/04/18 09:19:07;;;;;;;0.13;0.13;;;9.20;99.90;;;;;;5049417;28;21232;-85
2023/04/18 09:21:34;;;;;;;0.10;0.10;;;9.30;99.90;;;;;;5036447;28;20521;-87
2023/04/18 09:24:27;;;;;;;0.10;0.10;;;9.40;99.90;;;;;;5031912;28;20459;-84
2023/04/18 09:26:55;;;;;;;0.10;0.10;;;9.50;99.90;;;;;;5050964;28;20445;-85
2023/04/18 09:29:25;;;;;;;0.10;0.10;;;9.60;99.90;;;;;;5036697;28;20539;-87
2023/04/18 09:32:00;;;;;;;0.10;0.10;;;9.80;99.90;;;;;;5041936;28;20433;-84
2023/04/18 09:34:32;;;;;;;0.10;0.10;;;9.80;99.90;;;;;;5038769;28;20450;-84
2023/04/18 09:37:10;;;;;;;0.07;0.07;;;9.90;99.90;;;;;;5044699;28;20437;-85
2023/04/18 09:39:38;;;;;;;0.10;0.10;;;9.80;99.90;;;;;;5032121;28;20454;-85
2023/04/18 09:42:04;;;;;;;0.10;0.10;;;9.80;99.90;;;;;;5026449;28;20529;-85
2023/04/18 09:44:30;;;;;;;0.10;0.10;;;9.90;99.90;;;;;;5031758;28;20477;-85
2023/04/18 09:46:55;;;;;;;0.10;0.10;;;9.80;99.90;;;;;;5028580;28;21003;-87
2023/04/18 09:49:21;;;;;;;0.10;0.10;;;9.90;99.90;;;;;;5027053;28;20306;-86
2023/04/18 09:51:50;;;;;;;0.10;0.10;;;9.80;99.90;;;;;;5027109;28;20199;-87
2023/04/18 09:54:17;;;;;;;0.10;0.10;;;9.80;99.90;;;;;;5029841;28;20496;-90
2023/04/18 09:56:44;;;;;;;0.10;0.10;;;10.00;99.90;;;;;;5032433;28;20824;-87
2023/04/18 09:59:10;;;;;;;0.10;0.10;;;10.10;99.90;;;;;;5025769;28;20445;-85
2023/04/18 10:01:37;;;;;;;0.10;0.10;;;10.10;99.90;;;;;;5030460;28;20446;-88
2023/04/18 10:04:05;;;;;;;0.10;0.10;;;10.20;99.90;;;;;;5028661;28;20458;-88
2023/04/18 10:06:38;;;;;;;0.10;0.10;;;10.30;99.90;;;;;;5033651;28;20533;-86
2023/04/18 10:09:04;;;;;;;0.10;0.10;;;10.50;99.90;;;;;;5027220;28;20733;-88
2023/04/18 10:11:31;;;;;;;0.10;0.10;;;10.70;99.90;;;;;;5019436;28;20537;-86
2023/04/18 10:14:01;;;;;;;0.10;0.10;;;10.70;99.90;;;;;;5022370;28;20823;-85
2023/04/18 10:16:28;;;;;;;0.03;0.03;;;10.70;99.90;;;;;;5020827;28;20446;-88
2023/04/18 10:18:54;;;;;;;0.10;0.10;;;11.10;99.90;;;;;;5024604;28;20449;-87
2023/04/18 10:21:20;;;;;;;0.10;0.10;;;11.70;99.90;;;;;;5027744;28;20454;-87
2023/04/18 10:23:47;;;;;;;0.10;0.10;;;12.00;99.90;;;;;;5027497;28;20438;-89
2023/04/18 10:26:13;;;;;;;0.10;0.10;;;12.10;99.90;;;;;;5028575;28;20531;-88
2023/04/18 10:28:51;;;;;;;0.00;0.00;;;12.40;99.90;;;;;;5032298;28;20497;-88
2023/04/18 10:31:17;;;;;;;0.00;0.00;;;12.60;99.90;;;;;;5026397;28;20544;-90
2023/04/18 10:33:59;;;;;;;0.00;0.00;;;13.20;99.90;;;;;;5011698;28;20569;-87
2023/04/18 10:36:26;;;;;;;0.00;0.00;;;13.70;99.90;;;;;;5024780;28;20271;-85
2023/04/18 10:38:54;;;;;;;0.00;0.00;;;13.60;99.90;;;;;;5028790;28;20453;-88
2023/04/18 10:41:47;;;;;;;0.00;0.00;;;13.50;99.90;;;;;;5049282;28;20425;-86
2023/04/18 10:44:13;;;;;;;0.00;0.00;;;14.00;99.90;;;;;;5027989;28;20477;-87
2023/04/18 10:46:40;;;;;;;0.00;0.00;;;13.80;99.90;;;;;;5033213;28;20438;-87
2023/04/18 10:49:22;;;;;;;0.00;0.00;;;13.70;99.90;;;;;;5031689;28;20469;-91
2023/04/18 10:51:55;;;;;;;0.00;0.00;;;14.40;99.90;;;;;;5039612;28;20441;-90
2023/04/18 10:54:54;;;;;;;0.00;0.00;;;14.50;99.90;;;;;;5042273;28;20535;-87
2023/04/18 10:57:20;;;;;;;0.00;0.00;;;14.70;99.90;;;;;;5013651;28;20478;-88
2023/04/18 10:59:50;;;;;;;0.00;0.00;;;15.30;99.90;;;;;;5028886;28;20466;-90
2023/04/18 11:02:31;;;;;;;0.00;0.00;;;15.60;99.90;;;;;;5038909;28;20191;-87
2023/04/18 11:05:04;;;;;;;0.00;0.00;;;16.00;99.90;;;;;;5022315;28;20446;-87
2023/04/18 11:07:43;;;;;;;0.00;0.00;;;16.60;98.70;;;;;;5023508;28;20988;-86
2023/04/18 11:10:09;;;;;;;0.00;0.00;;;16.80;98.30;;;;;;5030191;28;20500;-86
2023/04/18 11:12:37;;;;;;;0.00;0.00;;;16.70;98.40;;;;;;5020267;28;20447;-88
2023/04/18 11:15:09;;;;;;;0.00;0.00;;;16.60;98.00;;;;;;5030428;28;20196;-86
2023/04/18 11:17:37;;;;;;;0.00;0.00;;;16.40;96.70;;;;;;5023107;28;20434;-87
2023/04/18 11:20:12;;;;;;;0.00;0.00;;;16.50;96.60;;;;;;5026627;28;20475;-87
2023/04/18 11:22:55;;;;;;;0.00;0.00;;;17.00;96.50;;;;;;5042897;28;20479;-86
2023/04/18 11:25:25;;;;;;;0.00;0.00;;;16.60;95.10;;;;;;5053823;28;22255;-86
2023/04/18 11:27:51;;;;;;;0.00;0.00;;;16.60;95.50;;;;;;5024934;28;20446;-88
2023/04/18 11:30:17;;;;;;;0.00;0.00;;;16.40;94.80;;;;;;5029145;28;20484;-88
2023/04/18 11:32:43;;;;;;;0.00;0.00;;;17.10;96.40;;;;;;5031334;28;20187;-87
2023/04/18 11:35:10;;;;;;;0.00;0.00;;;17.80;95.10;;;;;;5032945;28;20638;-89
2023/04/18 11:37:37;;;;;;;0.00;0.00;;;17.70;93.50;;;;;;5034521;28;20194;-87
2023/04/18 11:40:06;;;;;;;0.00;0.00;;;17.80;94.80;;;;;;5024753;28;20535;-89
2023/04/18 11:42:33;;;;;;;0.00;0.00;;;18.40;93.80;;;;;;5029469;28;20445;-89
2023/04/18 11:44:59;;;;;;;0.00;0.00;;;18.70;93.60;;;;;;5030593;28;20441;-88
2023/04/18 11:47:27;;;;;;;0.00;0.00;;;18.90;94.10;;;;;;5031332;28;20848;-88
2023/04/18 11:50:04;;;;;;;0.00;0.00;;;19.10;94.30;;;;;;5044057;28;20489;-89
2023/04/18 11:52:31;;;;;;;0.00;0.00;;;18.60;92.20;;;;;;5029941;28;20966;-88
2023/04/18 11:55:16;;;;;;;0.00;0.00;;;18.90;93.80;;;;;;5031451;28;20516;-89
2023/04/18 11:57:48;;;;;;;0.00;0.00;;;18.80;92.40;;;;;;5033240;28;20901;-87
2023/04/18 12:00:14;;;;;;;0.00;0.00;;;19.00;93.10;;;;;;5027625;28;20458;-88
2023/04/18 12:02:41;;;;;;;0.00;0.00;;;18.60;92.80;;;;;;5038738;28;20446;-85
2023/04/18 12:05:07;;;;;;;0.00;0.00;;;18.40;93.30;;;;;;5032569;28;20458;-87
2023/04/18 12:07:39;;;;;;;0.00;0.00;;;18.80;92.90;;;;;;5032622;28;20476;-87
2023/04/18 12:10:08;;;;;;;0.00;0.00;;;19.00;94.10;;;;;;5031156;28;20579;-86
2023/04/18 12:12:35;;;;;;;0.00;0.00;;;19.40;91.60;;;;;;5032024;28;20761;-86
2023/04/18 12:15:08;;;;;;;0.00;0.00;;;19.50;93.10;;;;;;5028089;28;20452;-87
2023/04/18 12:17:36;;;;;;;0.00;0.00;;;19.90;93.70;;;;;;5045229;28;21267;-89
2023/04/18 12:20:03;;;;;;;0.00;0.00;;;20.00;92.10;;;;;;5027625;28;20509;-89
2023/04/18 12:22:58;;;;;;;0.00;0.00;;;20.10;92.90;;;;;;5036362;28;20447;-88
2023/04/18 12:25:27;;;;;;;0.00;0.00;;;19.40;92.20;;;;;;5017374;28;20443;-88
2023/04/18 12:28:02;;;;;;;0.00;0.00;;;19.10;92.40;;;;;;5029524;28;20946;-91
2023/04/18 12:30:30;;;;;;;0.00;0.00;;;19.70;93.40;;;;;;5026757;28;20535;-87
2023/04/18 12:33:01;;;;;;;0.00;0.00;;;19.80;92.90;;;;;;5044371;28;20860;-88
2023/04/18 12:35:28;;;;;;;0.00;0.00;;;19.70;92.00;;;;;;5024294;28;20442;-89
2023/04/18 12:37:56;;;;;;;0.00;0.00;;;19.80;91.20;;;;;;5027366;28;20475;-88
2023/04/18 12:40:23;;;;;;;0.00;0.00;;;20.10;92.40;;;;;;5039028;28;20441;-90
2023/04/18 12:42:49;;;;;;;0.00;0.00;;;20.40;91.70;;;;;;5037060;28;20461;-92
2023/04/18 12:45:16;;;;;;;0.00;0.00;;;20.30;91.80;;;;;;5028322;28;20525;-92
2023/04/18 12:47:44;;;;;;;0.00;0.00;;;20.00;91.50;;;;;;5041911;28;20481;-88
2023/04/18 12:50:14;;;;;;;0.00;0.00;;;19.60;92.20;;;;;;5030853;28;20485;-90
2023/04/18 12:52:39;;;;;;;0.00;0.00;;;19.90;92.40;;;;;;5027737;28;20484;-91
2023/04/18 12:55:06;;;;;;;0.00;0.00;;;20.40;92.10;;;;;;5038802;28;20462;-91